createdAt,value
2023-04-28T00:00:28.738Z,0.00
2023-04-28T00:01:28.646Z,0.00
2023-04-28T00:02:28.596Z,0.00
2023-04-28T00:03:28.667Z,0.00
2023-04-28T00:04:28.511Z,0.00
2023-04-28T00:05:28.385Z,0.00
2023-04-28T00:06:28.238Z,0.00
2023-04-28T00:07:28.173Z,0.00
2023-04-28T00:08:28.077Z,0.00
2023-04-28T00:09:27.994Z,0.00
2023-04-28T00:10:27.915Z,0.00
2023-04-28T00:11:27.836Z,0.00
2023-04-28T00:12:27.762Z,0.00
2023-04-28T00:13:27.682Z,0.00
2023-04-28T00:14:27.660Z,0.00
2023-04-28T00:15:27.516Z,0.00
2023-04-28T00:16:27.546Z,0.00
2023-04-28T00:17:27.425Z,0.00
2023-04-28T00:18:27.335Z,0.00
2023-04-28T00:19:27.191Z,0.00
2023-04-28T00:20:27.113Z,0.00
2023-04-28T00:21:27.031Z,0.00
2023-04-28T00:22:26.950Z,0.00
2023-04-28T00:23:26.921Z,0.00
2023-04-28T00:24:26.789Z,0.00
2023-04-28T00:25:26.710Z,0.00
2023-04-28T00:26:26.629Z,0.00
2023-04-28T00:27:26.796Z,0.00
2023-04-28T00:28:34.105Z,0.00
2023-04-28T00:29:26.385Z,0.00
2023-04-28T00:30:26.306Z,0.00
2023-04-28T00:31:26.250Z,0.00
2023-04-28T00:32:26.187Z,0.00
2023-04-28T00:33:26.063Z,0.00
2023-04-28T00:34:26.285Z,0.00
2023-04-28T00:35:25.908Z,0.00
2023-04-28T00:36:25.836Z,0.00
2023-04-28T00:37:25.737Z,0.00
2023-04-28T00:38:25.655Z,0.00
2023-04-28T00:39:25.592Z,0.00
2023-04-28T00:40:25.496Z,0.00
2023-04-28T00:41:25.418Z,0.00
2023-04-28T00:42:25.437Z,0.00
2023-04-28T00:43:25.264Z,0.00
2023-04-28T00:44:25.170Z,0.00
2023-04-28T00:45:25.122Z,0.00
2023-04-28T00:46:25.007Z,0.00
2023-04-28T00:47:24.954Z,0.00
2023-04-28T00:48:24.875Z,0.00
2023-04-28T00:49:24.767Z,0.00
2023-04-28T00:50:24.684Z,0.00
2023-04-28T00:51:24.603Z,0.00
2023-04-28T00:52:24.526Z,0.00
2023-04-28T00:53:24.445Z,0.00
2023-04-28T00:54:24.381Z,0.00
2023-04-28T00:55:24.282Z,0.00
2023-04-28T00:56:24.288Z,0.00
2023-04-28T00:57:24.128Z,0.00
2023-04-28T00:58:24.042Z,0.00
2023-04-28T00:59:23.956Z,0.00
2023-04-28T01:00:23.894Z,0.00
2023-04-28T01:01:23.861Z,0.00
2023-04-28T01:02:24.021Z,0.00
2023-04-28T01:03:23.781Z,0.00
2023-04-28T01:04:24.111Z,0.00
2023-04-28T01:05:23.473Z,0.00
2023-04-28T01:06:23.388Z,0.00
2023-04-28T01:07:23.311Z,0.00
2023-04-28T01:08:23.228Z,0.00
2023-04-28T01:09:23.801Z,0.00
2023-04-28T01:10:23.064Z,0.00
2023-04-28T01:11:22.988Z,0.00
2023-04-28T01:12:22.924Z,0.00
2023-04-28T01:13:22.829Z,0.00
2023-04-28T01:14:22.751Z,0.00
2023-04-28T01:15:22.669Z,0.00
2023-04-28T01:16:22.712Z,0.00
2023-04-28T01:17:22.512Z,0.00
2023-04-28T01:18:22.421Z,0.00
2023-04-28T01:19:22.371Z,0.00
2023-04-28T01:20:22.475Z,0.00
2023-04-28T01:21:22.180Z,0.00
2023-04-28T01:22:22.348Z,0.00
2023-04-28T01:23:22.016Z,0.00
2023-04-28T01:24:22.101Z,0.00
2023-04-28T01:25:21.864Z,0.00
2023-04-28T01:26:21.777Z,0.00
2023-04-28T01:27:21.695Z,0.00
2023-04-28T01:28:21.628Z,0.00
2023-04-28T01:29:21.684Z,0.00
2023-04-28T01:30:21.455Z,0.00
2023-04-28T01:31:21.434Z,0.00
2023-04-28T01:32:21.295Z,0.00
2023-04-28T01:33:21.216Z,0.00
2023-04-28T01:34:21.136Z,0.00
2023-04-28T01:35:21.052Z,0.00
2023-04-28T01:36:20.989Z,0.00
2023-04-28T01:37:20.892Z,0.00
2023-04-28T01:38:20.808Z,0.00
2023-04-28T01:39:20.931Z,0.00
2023-04-28T01:40:20.999Z,0.00
2023-04-28T01:41:20.583Z,0.00
2023-04-28T01:42:20.495Z,0.00
2023-04-28T01:43:20.407Z,0.00
2023-04-28T01:44:20.324Z,0.00
2023-04-28T01:45:20.247Z,0.00
2023-04-28T01:46:20.654Z,0.00
2023-04-28T01:47:20.093Z,0.00
2023-04-28T01:48:20.003Z,0.00
2023-04-28T01:49:19.928Z,0.00
2023-04-28T01:50:19.847Z,0.00
2023-04-28T01:51:19.775Z,0.00
2023-04-28T01:52:19.737Z,0.00
2023-04-28T01:53:19.607Z,0.00
2023-04-28T01:54:19.526Z,0.00
2023-04-28T01:55:19.597Z,0.00
2023-04-28T01:56:19.372Z,0.00
2023-04-28T01:57:21.199Z,0.00
2023-04-28T01:58:19.201Z,0.00
2023-04-28T01:59:19.129Z,0.00
2023-04-28T02:00:19.042Z,0.00
2023-04-28T02:01:18.972Z,0.00
2023-04-28T02:02:18.921Z,0.00
2023-04-28T02:03:18.897Z,0.00
2023-04-28T02:04:19.043Z,0.00
2023-04-28T02:05:18.676Z,0.00
2023-04-28T02:06:18.562Z,0.00
2023-04-28T02:07:18.483Z,0.00
2023-04-28T02:08:18.429Z,0.00
2023-04-28T02:09:18.335Z,0.00
2023-04-28T02:10:18.247Z,0.00
2023-04-28T02:11:18.572Z,0.00
2023-04-28T02:12:18.084Z,0.00
2023-04-28T02:13:18.008Z,0.00
2023-04-28T02:14:18.375Z,0.00
2023-04-28T02:15:17.841Z,0.00
2023-04-28T02:16:18.023Z,0.00
2023-04-28T02:17:17.685Z,0.00
2023-04-28T02:18:17.605Z,0.00
2023-04-28T02:19:17.520Z,0.00
2023-04-28T02:20:17.438Z,0.00
2023-04-28T02:21:17.369Z,0.00
2023-04-28T02:22:17.280Z,0.00
2023-04-28T02:23:17.205Z,0.00
2023-04-28T02:24:17.510Z,0.00
2023-04-28T02:25:17.041Z,0.00
2023-04-28T02:26:16.967Z,0.00
2023-04-28T02:27:16.881Z,0.00
2023-04-28T02:28:16.797Z,0.00
2023-04-28T02:29:16.741Z,0.00
2023-04-28T02:30:16.638Z,0.00
2023-04-28T02:31:16.735Z,0.00
2023-04-28T02:32:16.681Z,0.00
2023-04-28T02:33:16.399Z,0.00
2023-04-28T02:34:16.651Z,0.00
2023-04-28T02:35:16.246Z,0.00
2023-04-28T02:36:16.160Z,0.00
2023-04-28T02:37:16.142Z,0.00
2023-04-28T02:38:15.998Z,0.00
2023-04-28T02:39:15.923Z,0.00
2023-04-28T02:40:15.977Z,0.00
2023-04-28T02:41:15.771Z,0.00
2023-04-28T02:42:15.679Z,0.00
2023-04-28T02:43:15.600Z,0.00
2023-04-28T02:44:15.832Z,0.00
2023-04-28T02:45:15.453Z,0.00
2023-04-28T02:46:15.403Z,0.00
2023-04-28T02:47:15.279Z,0.00
2023-04-28T02:48:15.196Z,0.00
2023-04-28T02:49:15.116Z,0.00
2023-04-28T02:50:15.037Z,0.00
2023-04-28T02:51:14.960Z,0.00
2023-04-28T02:52:14.875Z,0.00
2023-04-28T02:53:14.803Z,0.00
2023-04-28T02:54:14.913Z,0.00
2023-04-28T02:55:14.635Z,0.00
2023-04-28T02:56:14.576Z,0.00
2023-04-28T02:57:14.510Z,0.00
2023-04-28T02:58:14.416Z,0.00
2023-04-28T02:59:14.355Z,0.00
2023-04-28T03:00:14.233Z,0.00
2023-04-28T03:01:14.172Z,0.00
2023-04-28T03:02:14.076Z,0.00
2023-04-28T03:03:14.328Z,0.00
2023-04-28T03:04:14.220Z,0.00
2023-04-28T03:05:13.883Z,0.00
2023-04-28T03:06:13.755Z,0.00
2023-04-28T03:07:13.673Z,0.00
2023-04-28T03:08:13.695Z,0.00
2023-04-28T03:09:13.513Z,0.00
2023-04-28T03:10:13.436Z,0.00
2023-04-28T03:11:13.371Z,0.00
2023-04-28T03:12:13.332Z,0.00
2023-04-28T03:13:13.196Z,0.00
2023-04-28T03:14:13.115Z,0.00
2023-04-28T03:15:14.076Z,0.00
2023-04-28T03:16:12.983Z,0.00
2023-04-28T03:17:12.871Z,0.00
2023-04-28T03:18:12.790Z,0.00
2023-04-28T03:19:12.715Z,0.00
2023-04-28T03:20:12.629Z,0.00
2023-04-28T03:21:12.551Z,0.00
2023-04-28T03:22:12.483Z,0.00
2023-04-28T03:23:12.395Z,0.00
2023-04-28T03:24:12.319Z,0.00
2023-04-28T03:25:12.232Z,0.00
2023-04-28T03:26:12.247Z,0.00
2023-04-28T03:27:12.065Z,0.00
2023-04-28T03:28:12.019Z,0.00
2023-04-28T03:29:11.910Z,0.00
2023-04-28T03:30:11.832Z,0.00
2023-04-28T03:31:11.751Z,0.00
2023-04-28T03:32:11.796Z,0.00
2023-04-28T03:33:11.710Z,0.00
2023-04-28T03:34:11.515Z,0.00
2023-04-28T03:35:11.429Z,0.00
2023-04-28T03:36:11.348Z,0.00
2023-04-28T03:37:11.283Z,0.00
2023-04-28T03:38:11.191Z,0.00
2023-04-28T03:39:11.113Z,0.00
2023-04-28T03:40:11.026Z,0.00
2023-04-28T03:41:10.956Z,0.00
2023-04-28T03:42:10.884Z,0.00
2023-04-28T03:43:10.793Z,0.00
2023-04-28T03:44:10.741Z,0.00
2023-04-28T03:45:10.635Z,0.00
2023-04-28T03:46:10.633Z,0.00
2023-04-28T03:47:10.482Z,0.00
2023-04-28T03:48:10.421Z,0.00
2023-04-28T03:49:10.309Z,0.00
2023-04-28T03:50:10.243Z,0.00
2023-04-28T03:51:10.206Z,0.00
2023-04-28T03:52:10.066Z,0.00
2023-04-28T03:53:09.988Z,0.00
2023-04-28T03:54:10.156Z,0.00
2023-04-28T03:55:10.026Z,0.00
2023-04-28T03:56:09.747Z,0.00
2023-04-28T03:57:09.668Z,0.00
2023-04-28T03:58:09.592Z,0.00
2023-04-28T03:59:09.505Z,0.00
2023-04-28T04:00:09.450Z,0.00
2023-04-28T04:01:09.357Z,0.00
2023-04-28T04:02:11.914Z,0.00
2023-04-28T04:03:09.384Z,0.00
2023-04-28T04:04:09.422Z,0.00
2023-04-28T04:05:09.173Z,0.00
2023-04-28T04:06:08.955Z,0.00
2023-04-28T04:07:08.874Z,0.00
2023-04-28T04:08:08.884Z,0.00
2023-04-28T04:09:08.708Z,0.00
2023-04-28T04:10:08.634Z,0.00
2023-04-28T04:11:08.548Z,0.00
2023-04-28T04:12:08.468Z,0.00
2023-04-28T04:13:08.389Z,0.00
2023-04-28T04:14:08.311Z,0.00
2023-04-28T04:15:08.233Z,0.00
2023-04-28T04:16:08.258Z,0.00
2023-04-28T04:17:08.069Z,0.00
2023-04-28T04:18:08.479Z,5.63
2023-04-28T04:19:07.908Z,5.63
2023-04-28T04:20:07.838Z,5.63
2023-04-28T04:21:07.747Z,5.63
2023-04-28T04:22:08.071Z,5.63
2023-04-28T04:23:07.590Z,5.63
2023-04-28T04:24:07.515Z,5.63
2023-04-28T04:25:07.433Z,5.63
2023-04-28T04:26:07.352Z,5.63
2023-04-28T04:27:07.294Z,5.63
2023-04-28T04:28:07.192Z,5.63
2023-04-28T04:29:07.112Z,5.63
2023-04-28T04:30:07.031Z,5.63
2023-04-28T04:31:06.962Z,5.63
2023-04-28T04:32:06.888Z,5.63
2023-04-28T04:33:06.868Z,5.63
2023-04-28T04:34:06.704Z,5.63
2023-04-28T04:35:06.640Z,5.63
2023-04-28T04:36:06.550Z,5.63
2023-04-28T04:37:06.634Z,5.63
2023-04-28T04:38:06.395Z,5.63
2023-04-28T04:39:06.306Z,5.63
2023-04-28T04:40:06.228Z,5.63
2023-04-28T04:41:06.357Z,5.63
2023-04-28T04:42:22.671Z,5.63
2023-04-28T04:43:05.993Z,11.25
2023-04-28T04:44:05.910Z,11.25
2023-04-28T04:45:05.828Z,11.25
2023-04-28T04:46:05.767Z,11.25
2023-04-28T04:47:05.670Z,11.25
2023-04-28T04:48:05.650Z,11.25
2023-04-28T04:49:05.507Z,11.25
2023-04-28T04:50:05.442Z,11.25
2023-04-28T04:51:05.348Z,11.25
2023-04-28T04:52:05.272Z,11.25
2023-04-28T04:53:05.188Z,11.25
2023-04-28T04:54:05.409Z,11.25
2023-04-28T04:55:05.035Z,16.88
2023-04-28T04:56:04.949Z,16.88
2023-04-28T04:57:04.867Z,22.50
2023-04-28T04:58:04.794Z,22.50
2023-04-28T04:59:04.712Z,22.50
2023-04-28T05:00:04.632Z,28.13
2023-04-28T05:01:04.556Z,28.13
2023-04-28T05:02:04.544Z,33.75
2023-04-28T05:03:04.505Z,39.38
2023-04-28T05:04:04.689Z,45.00
2023-04-28T05:05:16.891Z,50.63
2023-04-28T05:06:04.163Z,56.25
2023-04-28T05:07:04.074Z,56.25
2023-04-28T05:08:03.999Z,56.25
2023-04-28T05:09:03.914Z,61.88
2023-04-28T05:10:03.837Z,61.88
2023-04-28T05:11:03.762Z,61.88
2023-04-28T05:12:03.681Z,61.88
2023-04-28T05:13:03.595Z,61.88
2023-04-28T05:14:03.524Z,67.50
2023-04-28T05:15:03.438Z,67.50
2023-04-28T05:16:03.434Z,73.13
2023-04-28T05:17:03.280Z,73.13
2023-04-28T05:18:03.234Z,73.13
2023-04-28T05:19:03.125Z,73.13
2023-04-28T05:20:03.068Z,73.13
2023-04-28T05:21:02.963Z,67.50
2023-04-28T05:22:02.888Z,61.88
2023-04-28T05:23:02.843Z,67.50
2023-04-28T05:24:02.737Z,67.50
2023-04-28T05:25:02.675Z,61.88
2023-04-28T05:26:02.571Z,56.25
2023-04-28T05:27:02.493Z,56.25
2023-04-28T05:28:02.408Z,56.25
2023-04-28T05:29:02.334Z,56.25
2023-04-28T05:30:02.251Z,56.25
2023-04-28T05:31:02.174Z,50.63
2023-04-28T05:32:02.118Z,45.00
2023-04-28T05:33:02.046Z,45.00
2023-04-28T05:34:01.935Z,39.38
2023-04-28T05:35:01.850Z,39.38
2023-04-28T05:36:01.797Z,33.75
2023-04-28T05:37:01.693Z,33.75
2023-04-28T05:38:01.622Z,33.75
2023-04-28T05:39:01.536Z,33.75
2023-04-28T05:40:01.488Z,33.75
2023-04-28T05:41:01.396Z,33.75
2023-04-28T05:42:01.298Z,33.75
2023-04-28T05:43:01.218Z,33.75
2023-04-28T05:44:01.140Z,39.38
2023-04-28T05:45:01.069Z,39.38
2023-04-28T05:46:01.052Z,39.38
2023-04-28T05:47:00.967Z,39.38
2023-04-28T05:48:00.858Z,45.00
2023-04-28T05:49:00.757Z,39.38
2023-04-28T05:50:00.688Z,39.38
2023-04-28T05:51:00.589Z,33.75
2023-04-28T05:52:00.522Z,33.75
2023-04-28T05:53:00.425Z,33.75
2023-04-28T05:54:00.347Z,33.75
2023-04-28T05:55:00.267Z,33.75
2023-04-28T05:56:00.188Z,33.75
2023-04-28T05:57:01.472Z,33.75
2023-04-28T05:58:00.030Z,33.75
2023-04-28T05:58:59.952Z,33.75
2023-04-28T05:59:59.970Z,33.75
2023-04-28T06:00:59.939Z,33.75
2023-04-28T06:01:59.773Z,33.75
2023-04-28T06:03:02.498Z,33.75
2023-04-28T06:03:59.912Z,33.75
2023-04-28T06:04:59.644Z,33.75
2023-04-28T06:05:59.481Z,33.75
2023-04-28T06:06:59.317Z,33.75
2023-04-28T06:07:59.261Z,28.13
2023-04-28T06:08:59.159Z,28.13
2023-04-28T06:09:59.092Z,28.13
2023-04-28T06:10:59.502Z,28.13
2023-04-28T06:11:58.928Z,28.13
2023-04-28T06:12:58.844Z,28.13
2023-04-28T06:13:58.762Z,28.13
2023-04-28T06:14:58.691Z,28.13
2023-04-28T06:15:58.678Z,28.13
2023-04-28T06:16:58.535Z,28.13
2023-04-28T06:17:58.498Z,28.13
2023-04-28T06:18:58.371Z,33.75
2023-04-28T06:19:58.297Z,33.75
2023-04-28T06:20:58.214Z,33.75
2023-04-28T06:21:58.142Z,33.75
2023-04-28T06:22:58.462Z,28.13
2023-04-28T06:23:57.998Z,22.50
2023-04-28T06:24:57.898Z,22.50
2023-04-28T06:25:57.819Z,16.88
2023-04-28T06:26:57.735Z,22.50
2023-04-28T06:27:57.710Z,22.50
2023-04-28T06:28:57.580Z,28.13
2023-04-28T06:29:57.518Z,22.50
2023-04-28T06:30:57.441Z,22.50
2023-04-28T06:31:57.350Z,22.50
2023-04-28T06:32:57.293Z,33.75
2023-04-28T06:33:57.188Z,39.38
2023-04-28T06:34:58.520Z,39.38
2023-04-28T06:35:57.045Z,39.38
2023-04-28T06:36:56.948Z,45.00
2023-04-28T06:37:56.968Z,39.38
2023-04-28T06:38:56.795Z,39.38
2023-04-28T06:39:56.726Z,39.38
2023-04-28T06:40:56.733Z,45.00
2023-04-28T06:41:56.552Z,56.25
2023-04-28T06:42:56.493Z,50.63
2023-04-28T06:43:56.392Z,45.00
2023-04-28T06:44:56.327Z,45.00
2023-04-28T06:45:56.237Z,50.63
2023-04-28T06:46:56.233Z,50.63
2023-04-28T06:47:56.276Z,50.63
2023-04-28T06:48:56.018Z,50.63
2023-04-28T06:49:55.920Z,50.63
2023-04-28T06:50:55.839Z,45.00
2023-04-28T06:51:55.759Z,39.38
2023-04-28T06:52:55.679Z,39.38
2023-04-28T06:53:55.611Z,45.00
2023-04-28T06:54:55.524Z,39.38
2023-04-28T06:55:55.482Z,39.38
2023-04-28T06:56:55.512Z,39.38
2023-04-28T06:57:55.285Z,39.38
2023-04-28T06:58:55.230Z,39.38
2023-04-28T06:59:55.136Z,45.00
2023-04-28T07:00:55.088Z,39.38
2023-04-28T07:01:55.309Z,33.75
2023-04-28T07:02:55.348Z,33.75
2023-04-28T07:03:54.876Z,33.75
2023-04-28T07:04:54.728Z,39.38
2023-04-28T07:05:54.650Z,33.75
2023-04-28T07:06:54.579Z,33.75
2023-04-28T07:07:54.546Z,28.13
2023-04-28T07:08:54.428Z,33.75
2023-04-28T07:09:54.341Z,33.75
2023-04-28T07:10:54.383Z,33.75
2023-04-28T07:11:54.196Z,33.75
2023-04-28T07:12:54.099Z,39.38
2023-04-28T07:13:54.023Z,50.63
2023-04-28T07:14:53.999Z,61.88
2023-04-28T07:15:53.871Z,50.63
2023-04-28T07:16:53.898Z,50.63
2023-04-28T07:17:54.059Z,50.63
2023-04-28T07:18:53.617Z,45.00
2023-04-28T07:19:53.540Z,39.38
2023-04-28T07:20:53.463Z,39.38
2023-04-28T07:21:53.384Z,39.38
2023-04-28T07:22:53.707Z,45.00
2023-04-28T07:23:53.223Z,50.63
2023-04-28T07:24:53.148Z,50.63
2023-04-28T07:25:53.065Z,56.25
2023-04-28T07:26:52.988Z,67.50
2023-04-28T07:27:52.935Z,73.13
2023-04-28T07:28:52.840Z,67.50
2023-04-28T07:29:52.753Z,73.13
2023-04-28T07:30:52.669Z,73.13
2023-04-28T07:31:52.655Z,73.13
2023-04-28T07:32:52.600Z,73.13
2023-04-28T07:33:52.443Z,84.38
2023-04-28T07:34:52.351Z,84.38
2023-04-28T07:35:52.272Z,106.88
2023-04-28T07:36:52.249Z,118.13
2023-04-28T07:37:52.124Z,106.88
2023-04-28T07:38:52.031Z,118.13
2023-04-28T07:39:51.956Z,157.50
2023-04-28T07:41:51.796Z,163.13
2023-04-28T07:42:51.728Z,157.50
2023-04-28T07:43:51.684Z,112.50
2023-04-28T07:44:51.559Z,123.75
2023-04-28T07:45:51.560Z,123.75
2023-04-28T07:46:52.376Z,146.25
2023-04-28T07:47:51.340Z,135.00
2023-04-28T07:48:51.245Z,129.38
2023-04-28T07:49:51.164Z,151.88
2023-04-28T07:50:51.079Z,157.50
2023-04-28T07:51:51.000Z,151.88
2023-04-28T07:52:50.925Z,146.25
2023-04-28T07:53:50.843Z,196.88
2023-04-28T07:54:50.780Z,236.25
2023-04-28T07:55:50.687Z,230.63
2023-04-28T07:56:50.604Z,247.50
2023-04-28T07:57:50.624Z,230.63
2023-04-28T07:58:50.448Z,241.88
2023-04-28T07:59:50.398Z,236.25
2023-04-28T08:00:50.290Z,236.25
2023-04-28T08:01:50.214Z,213.75
2023-04-28T08:02:50.226Z,219.38
2023-04-28T08:03:50.381Z,270.00
2023-04-28T08:04:50.145Z,275.63
2023-04-28T08:05:49.955Z,241.88
2023-04-28T08:06:49.818Z,225.00
2023-04-28T08:07:49.773Z,202.50
2023-04-28T08:08:49.718Z,202.50
2023-04-28T08:09:50.696Z,191.25
2023-04-28T08:10:49.506Z,202.50
2023-04-28T08:11:49.457Z,196.88
2023-04-28T08:12:49.355Z,202.50
2023-04-28T08:13:49.326Z,219.38
2023-04-28T08:14:49.192Z,258.75
2023-04-28T08:15:49.195Z,253.13
2023-04-28T08:16:49.086Z,275.63
2023-04-28T08:17:48.964Z,225.00
2023-04-28T08:18:48.900Z,219.38
2023-04-28T08:19:48.814Z,213.75
2023-04-28T08:20:48.724Z,191.25
2023-04-28T08:21:48.649Z,151.88
2023-04-28T08:22:48.567Z,135.00
2023-04-28T08:23:48.489Z,118.13
2023-04-28T08:24:48.469Z,118.13
2023-04-28T08:25:48.340Z,129.38
2023-04-28T08:26:48.255Z,118.13
2023-04-28T08:27:48.180Z,106.88
2023-04-28T08:28:48.107Z,106.88
2023-04-28T08:29:48.028Z,106.88
2023-04-28T08:30:47.945Z,106.88
2023-04-28T08:31:47.920Z,101.25
2023-04-28T08:32:48.231Z,118.13
2023-04-28T08:33:47.713Z,112.50
2023-04-28T08:34:47.630Z,106.88
2023-04-28T08:35:47.557Z,106.88
2023-04-28T08:36:47.489Z,129.38
2023-04-28T08:37:47.396Z,129.38
2023-04-28T08:38:47.319Z,129.38
2023-04-28T08:39:47.241Z,146.25
2023-04-28T08:40:47.164Z,146.25
2023-04-28T08:41:47.083Z,146.25
2023-04-28T08:42:47.009Z,151.88
2023-04-28T08:43:46.930Z,163.13
2023-04-28T08:44:46.849Z,213.75
2023-04-28T08:45:46.772Z,219.38
2023-04-28T08:46:46.778Z,191.25
2023-04-28T08:47:46.824Z,174.38
2023-04-28T08:48:46.577Z,168.75
2023-04-28T08:49:46.456Z,196.88
2023-04-28T08:50:46.379Z,208.13
2023-04-28T08:51:46.347Z,241.88
2023-04-28T08:52:46.220Z,281.25
2023-04-28T08:54:11.617Z,264.38
2023-04-28T08:54:46.060Z,303.75
2023-04-28T08:55:45.996Z,337.50
2023-04-28T08:56:45.914Z,343.13
2023-04-28T08:57:46.078Z,225.00
2023-04-28T08:58:45.756Z,168.75
2023-04-28T08:59:45.672Z,208.13
2023-04-28T09:00:45.592Z,174.38
2023-04-28T09:01:45.537Z,219.38
2023-04-28T09:02:45.548Z,196.88
2023-04-28T09:03:45.591Z,213.75
2023-04-28T09:04:45.438Z,236.25
2023-04-28T09:05:45.372Z,230.63
2023-04-28T09:06:45.143Z,219.38
2023-04-28T09:07:45.057Z,208.13
2023-04-28T09:08:44.971Z,264.38
2023-04-28T09:09:44.888Z,270.00
2023-04-28T09:10:44.813Z,275.63
2023-04-28T09:11:44.733Z,281.25
2023-04-28T09:12:44.654Z,303.75
2023-04-28T09:13:44.577Z,225.00
2023-04-28T09:14:44.503Z,236.25
2023-04-28T09:15:44.421Z,354.38
2023-04-28T09:16:44.389Z,315.00
2023-04-28T09:17:44.291Z,365.63
2023-04-28T09:18:44.250Z,292.50
2023-04-28T09:19:44.128Z,354.38
2023-04-28T09:20:44.045Z,270.00
2023-04-28T09:21:43.955Z,241.88
2023-04-28T09:22:43.889Z,303.75
2023-04-28T09:23:43.800Z,270.00
2023-04-28T09:24:43.725Z,241.88
2023-04-28T09:25:43.651Z,241.88
2023-04-28T09:26:43.571Z,213.75
2023-04-28T09:27:43.501Z,275.63
2023-04-28T09:28:43.417Z,326.25
2023-04-28T09:29:43.340Z,303.75
2023-04-28T09:30:43.271Z,343.13
2023-04-28T09:31:43.247Z,360.00
2023-04-28T09:33:25.691Z,365.63
2023-04-28T09:34:25.517Z,315.00
2023-04-28T09:35:25.460Z,303.75
2023-04-28T09:36:25.409Z,337.50
2023-04-28T09:37:25.283Z,253.13
2023-04-28T09:38:25.210Z,270.00
2023-04-28T09:39:25.130Z,315.00
2023-04-28T09:40:25.048Z,281.25
2023-04-28T09:41:25.047Z,303.75
2023-04-28T09:42:24.910Z,326.25
2023-04-28T09:43:24.822Z,365.63
2023-04-28T09:44:24.741Z,337.50
2023-04-28T09:45:24.673Z,371.25
2023-04-28T09:46:24.595Z,382.50
2023-04-28T09:47:24.521Z,371.25
2023-04-28T09:48:24.435Z,455.63
2023-04-28T09:49:24.607Z,455.63
2023-04-28T09:50:24.278Z,472.50
2023-04-28T09:51:24.246Z,416.25
2023-04-28T09:52:24.126Z,416.25
2023-04-28T09:53:24.068Z,427.50
2023-04-28T09:54:23.974Z,416.25
2023-04-28T09:55:23.894Z,478.13
2023-04-28T10:57:31.927Z,691.88
2023-04-28T10:58:31.828Z,691.88
2023-04-28T10:59:31.745Z,748.13
2023-04-28T11:00:31.668Z,613.13
2023-04-28T11:01:31.606Z,444.38
2023-04-28T11:02:31.605Z,478.13
2023-04-28T11:03:32.003Z,478.13
2023-04-28T11:04:31.535Z,393.75
2023-04-28T11:05:31.295Z,315.00
2023-04-28T11:06:31.218Z,320.63
2023-04-28T11:07:31.141Z,360.00
2023-04-28T11:08:31.066Z,388.13
2023-04-28T11:09:31.239Z,382.50
2023-04-28T11:10:30.914Z,489.38
2023-04-28T11:11:30.837Z,472.50
2023-04-28T11:12:30.863Z,466.88
2023-04-28T11:14:18.213Z,320.63
2023-04-28T11:15:18.098Z,371.25
2023-04-28T11:16:18.137Z,371.25
2023-04-28T11:17:17.945Z,365.63
2023-04-28T15:35:20.733Z,236.25
2023-04-28T15:36:20.593Z,821.25
2023-04-28T15:37:20.562Z,416.25
2023-04-28T15:38:20.445Z,483.75
2023-04-28T15:39:20.374Z,601.88
2023-04-28T15:40:20.354Z,562.50
2023-04-28T15:41:20.228Z,675.00
2023-04-28T15:42:20.155Z,759.38
2023-04-28T15:43:20.284Z,421.88
2023-04-28T15:44:20.009Z,388.13
2023-04-28T15:45:19.986Z,680.63
2023-04-28T15:46:19.938Z,736.88
2023-04-28T15:47:19.799Z,697.50
2023-04-28T15:49:02.208Z,691.88
2023-04-28T15:50:02.132Z,596.25
2023-04-28T15:51:02.080Z,630.00
2023-04-28T15:52:02.020Z,523.13
2023-04-28T15:53:01.916Z,444.38
2023-04-28T15:54:01.848Z,393.75
2023-04-28T15:55:01.767Z,331.88
2023-04-28T15:56:01.689Z,298.13
2023-04-28T15:57:01.625Z,292.50
2023-04-28T15:58:01.562Z,270.00
2023-04-28T15:59:01.484Z,264.38
2023-04-28T16:00:01.406Z,275.63
2023-04-28T16:01:01.428Z,298.13
2023-04-28T16:02:01.285Z,360.00
2023-04-28T16:03:01.634Z,455.63
2023-04-28T16:04:01.336Z,1299.38
2023-04-28T16:05:01.040Z,1642.50
2023-04-28T16:06:01.973Z,1479.38
2023-04-28T16:07:00.913Z,1597.50
2023-04-28T16:08:00.819Z,1395.00
2023-04-28T16:09:00.746Z,1113.75
2023-04-28T16:10:03.292Z,708.75
2023-04-28T16:11:00.602Z,725.63
2023-04-28T16:12:00.780Z,1102.50
2023-04-28T16:13:00.466Z,759.38
2023-04-28T16:14:00.430Z,1406.25
2023-04-28T16:15:00.318Z,1372.50
2023-04-28T16:16:00.279Z,489.38
2023-04-28T16:17:00.277Z,1299.38
2023-04-28T16:18:00.291Z,1350.00
2023-04-28T16:19:00.026Z,1198.13
2023-04-28T16:38:24.195Z,298.13
2023-04-28T16:39:24.049Z,275.63
2023-04-28T16:40:24.332Z,264.38
2023-04-28T16:41:23.917Z,264.38
2023-04-28T16:42:23.834Z,264.38
2023-04-28T16:43:23.769Z,264.38
2023-04-28T16:44:23.789Z,275.63
2023-04-28T16:45:23.609Z,286.88
2023-04-28T16:46:23.597Z,298.13
2023-04-28T16:47:23.481Z,298.13
2023-04-28T16:48:23.391Z,292.50
2023-04-28T16:49:23.322Z,286.88
2023-04-28T16:50:23.251Z,275.63
2023-04-28T16:51:23.173Z,270.00
2023-04-28T16:52:23.451Z,264.38
2023-04-28T16:53:23.028Z,236.25
2023-04-28T16:54:22.977Z,202.50
2023-04-28T16:55:22.883Z,185.63
2023-04-28T16:56:22.809Z,191.25
2023-04-28T16:57:22.782Z,185.63
2023-04-28T16:58:22.664Z,185.63
2023-04-28T16:59:22.951Z,191.25
2023-04-28T17:00:22.558Z,168.75
2023-04-28T17:01:22.495Z,151.88
2023-04-28T17:02:22.540Z,135.00
2023-04-28T17:03:22.464Z,123.75
2023-04-28T17:04:22.409Z,118.13
2023-04-28T17:05:26.857Z,112.50
2023-04-28T17:06:22.074Z,101.25
2023-04-28T17:07:24.198Z,95.63
2023-04-28T17:08:21.919Z,95.63
2023-04-28T17:09:21.847Z,95.63
2023-04-28T17:10:21.790Z,90.00
2023-04-28T17:11:21.699Z,84.38
2023-04-28T17:12:21.620Z,78.75
2023-04-28T17:13:21.548Z,67.50
2023-04-28T17:14:21.482Z,56.25
2023-04-28T17:15:21.404Z,50.63
2023-04-28T17:16:21.429Z,39.38
2023-04-28T17:17:21.327Z,39.38
2023-04-28T17:18:21.185Z,39.38
2023-04-28T17:19:21.105Z,22.50
2023-04-28T17:20:21.025Z,22.50
2023-04-28T17:21:20.952Z,22.50
2023-04-28T17:22:20.878Z,22.50
2023-04-28T17:23:20.826Z,16.88
2023-04-28T17:24:20.727Z,16.88
2023-04-28T17:25:20.950Z,16.88
2023-04-28T17:26:20.615Z,11.25
2023-04-28T17:27:20.501Z,16.88
2023-04-28T17:28:20.424Z,11.25
2023-04-28T17:29:20.350Z,11.25
2023-04-28T17:30:20.274Z,11.25
2023-04-28T17:31:20.247Z,11.25
2023-04-28T17:32:20.128Z,11.25
2023-04-28T17:33:20.052Z,11.25
2023-04-28T17:34:19.990Z,5.63
2023-04-28T17:35:19.904Z,5.63
2023-04-28T17:36:19.819Z,5.63
2023-04-28T17:37:19.759Z,5.63
2023-04-28T17:38:19.667Z,5.63
2023-04-28T17:39:19.600Z,5.63
2023-04-28T17:40:19.736Z,11.25
2023-04-28T17:41:19.444Z,11.25
2023-04-28T17:42:19.390Z,11.25
2023-04-28T17:43:19.294Z,16.88
2023-04-28T17:44:19.220Z,22.50
2023-04-28T17:45:19.150Z,28.13
2023-04-28T17:46:19.144Z,45.00
2023-04-28T17:47:18.995Z,61.88
2023-04-28T17:48:18.927Z,73.13
2023-04-28T17:49:18.839Z,73.13
2023-04-28T17:50:18.760Z,67.50
2023-04-28T17:51:18.687Z,61.88
2023-04-28T17:52:18.616Z,61.88
2023-04-28T17:53:18.541Z,67.50
2023-04-28T17:54:18.658Z,78.75
2023-04-28T17:55:18.386Z,84.38
2023-04-28T17:56:18.304Z,101.25
2023-04-28T17:57:18.239Z,118.13
2023-04-28T17:58:18.174Z,123.75
2023-04-28T17:59:18.090Z,106.88
2023-04-28T18:00:18.000Z,90.00
2023-04-28T18:01:17.935Z,90.00
2023-04-28T18:02:17.898Z,84.38
2023-04-28T18:03:17.861Z,73.13
2023-04-28T18:04:17.933Z,61.88
2023-04-28T18:05:17.628Z,45.00
2023-04-28T18:06:17.541Z,39.38
2023-04-28T18:07:17.466Z,33.75
2023-04-28T18:08:17.391Z,28.13
2023-04-28T18:09:17.316Z,22.50
2023-04-28T18:13:22.972Z,16.88
2023-04-28T18:14:22.825Z,16.88
2023-04-28T18:15:22.952Z,11.25
2023-04-28T18:16:23.104Z,11.25
2023-04-28T18:17:22.665Z,11.25
2023-04-28T18:18:22.518Z,11.25
2023-04-28T18:19:22.484Z,5.63
2023-04-28T18:20:22.369Z,5.63
2023-04-28T18:21:22.297Z,5.63
2023-04-28T18:22:22.215Z,11.25
2023-04-28T18:23:22.134Z,11.25
2023-04-28T18:24:22.061Z,11.25
2023-04-28T18:25:21.982Z,11.25
2023-04-28T18:26:21.902Z,11.25
2023-04-28T18:27:21.826Z,11.25
2023-04-28T18:28:21.756Z,11.25
2023-04-28T18:29:21.953Z,5.63
2023-04-28T18:30:21.598Z,5.63
2023-04-28T18:31:21.545Z,5.63
2023-04-28T18:32:21.441Z,5.63
2023-04-28T18:33:23.290Z,5.63
2023-04-28T18:34:21.298Z,5.63
2023-04-28T18:35:21.212Z,5.63
2023-04-28T18:36:21.134Z,0.00